createdAt,value
2022-08-17T00:00:34.907Z,5.97
2022-08-17T00:01:51.912Z,6.37
2022-08-17T00:03:19.954Z,6.20
2022-08-17T00:04:23.888Z,6.13
2022-08-17T00:05:26.864Z,6.27
2022-08-17T00:06:29.636Z,6.40
2022-08-17T00:07:31.599Z,6.13
2022-08-17T00:08:36.718Z,6.90
2022-08-17T00:09:38.368Z,6.20
2022-08-17T00:10:41.149Z,5.70
2022-08-17T00:12:41.140Z,5.70
2022-08-17T00:13:15.280Z,5.80
2022-08-17T00:14:18.943Z,5.87
2022-08-17T00:15:21.524Z,6.00
2022-08-17T00:16:50.510Z,5.70
2022-08-17T00:17:53.198Z,5.87
2022-08-17T00:19:08.055Z,5.63
2022-08-17T00:20:11.990Z,6.80
2022-08-17T00:21:16.045Z,6.60
2022-08-17T00:22:34.159Z,5.93
2022-08-17T00:23:44.337Z,5.63
2022-08-17T00:24:51.254Z,6.40
2022-08-17T00:25:53.689Z,5.97
2022-08-17T00:26:55.301Z,6.13
2022-08-17T00:27:56.816Z,7.00
2022-08-17T00:28:59.951Z,6.20
2022-08-17T00:30:01.690Z,7.07
2022-08-17T00:31:03.740Z,6.70
2022-08-17T00:33:16.005Z,7.23
2022-08-17T00:33:29.870Z,7.03
2022-08-17T00:34:31.889Z,7.20
2022-08-17T00:35:35.245Z,6.97
2022-08-17T00:36:37.110Z,7.57
2022-08-17T00:37:39.126Z,7.43
2022-08-17T00:38:41.206Z,8.10
2022-08-17T00:39:42.751Z,8.57
2022-08-17T00:40:48.289Z,8.30
2022-08-17T00:41:49.870Z,7.63
2022-08-17T00:42:51.957Z,8.03
2022-08-17T00:43:54.030Z,8.60
2022-08-17T00:44:55.589Z,8.20
2022-08-17T00:45:59.163Z,8.23
2022-08-17T00:47:00.959Z,8.57
2022-08-17T00:48:02.722Z,8.10
2022-08-17T00:49:05.877Z,8.43
2022-08-17T00:50:10.221Z,7.40
2022-08-17T00:51:18.776Z,7.80
2022-08-17T00:52:25.671Z,7.80
2022-08-17T00:53:30.120Z,8.13
2022-08-17T00:54:41.726Z,8.50
2022-08-17T00:55:44.257Z,8.10
2022-08-17T00:56:51.712Z,7.53
2022-08-17T00:57:57.786Z,7.63
2022-08-17T00:59:00.533Z,8.07
2022-08-17T01:00:11.294Z,8.23
2022-08-17T01:01:21.339Z,7.80
2022-08-17T01:02:24.172Z,8.10
2022-08-17T01:03:26.222Z,7.67
2022-08-17T01:04:29.958Z,7.40
2022-08-17T01:05:33.413Z,7.33
2022-08-17T01:06:35.087Z,7.90
2022-08-17T01:07:37.889Z,7.00
2022-08-17T01:08:40.617Z,7.47
2022-08-17T01:09:43.981Z,7.37
2022-08-17T01:10:57.555Z,7.53
2022-08-17T01:12:06.153Z,7.70
2022-08-17T01:13:12.171Z,7.77
2022-08-17T01:14:14.475Z,7.50
2022-08-17T01:15:16.416Z,7.10
2022-08-17T01:16:20.523Z,7.40
2022-08-17T01:17:22.105Z,7.47
2022-08-17T01:18:26.241Z,7.10
2022-08-17T01:19:31.622Z,6.93
2022-08-17T01:20:41.855Z,7.10
2022-08-17T01:22:11.509Z,7.90
2022-08-17T01:23:18.469Z,8.40
2022-08-17T01:24:23.090Z,8.20
2022-08-17T01:25:24.993Z,7.53
2022-08-17T01:26:28.332Z,7.13
2022-08-17T01:27:30.991Z,8.33
2022-08-17T01:28:54.372Z,8.20
2022-08-17T01:30:05.042Z,9.20
2022-08-17T01:31:30.896Z,8.73
2022-08-17T01:32:33.480Z,9.37
2022-08-17T01:33:35.854Z,9.40
2022-08-17T01:34:43.502Z,8.67
2022-08-17T01:35:51.551Z,8.50
2022-08-17T01:36:54.148Z,8.03
2022-08-17T01:37:55.716Z,9.63
2022-08-17T01:38:57.286Z,10.00
2022-08-17T01:40:06.528Z,9.90
2022-08-17T01:41:12.561Z,12.90
2022-08-17T01:42:26.323Z,12.00
2022-08-17T01:43:38.953Z,11.70
2022-08-17T01:44:40.895Z,12.50
2022-08-17T01:45:46.050Z,10.77
2022-08-17T01:46:47.687Z,11.30
2022-08-17T01:47:50.988Z,11.17
2022-08-17T01:48:53.973Z,11.93
2022-08-17T01:49:56.423Z,11.13
2022-08-17T01:50:58.149Z,10.10
2022-08-17T01:52:06.568Z,9.93
2022-08-17T01:53:13.444Z,10.17
2022-08-17T01:54:17.322Z,9.90
2022-08-17T01:55:27.446Z,10.90
2022-08-17T01:56:30.913Z,10.43
2022-08-17T01:57:32.444Z,9.73
2022-08-17T01:58:36.238Z,10.67
2022-08-17T01:59:37.788Z,10.50
2022-08-17T02:00:59.704Z,10.30
2022-08-17T02:02:04.954Z,10.73
2022-08-17T02:03:07.823Z,11.03
2022-08-17T02:04:09.525Z,9.87
2022-08-17T02:05:12.385Z,8.50
2022-08-17T02:06:27.864Z,7.03
2022-08-17T02:07:30.200Z,6.93
2022-08-17T02:08:37.366Z,7.20
2022-08-17T02:09:41.428Z,7.10
2022-08-17T02:10:46.845Z,6.33
2022-08-17T02:11:48.729Z,6.70
2022-08-17T02:12:51.978Z,6.03
2022-08-17T02:13:57.780Z,6.80
2022-08-17T02:15:06.658Z,5.67
2022-08-17T02:16:08.210Z,6.77
2022-08-17T02:17:09.733Z,6.20
2022-08-17T02:18:13.443Z,6.50
2022-08-17T02:19:16.365Z,6.43
2022-08-17T02:20:18.269Z,7.10
2022-08-17T02:21:41.628Z,6.03
2022-08-17T02:22:45.806Z,6.70
2022-08-17T02:23:49.942Z,6.33
2022-08-17T02:24:58.588Z,6.47
2022-08-17T02:26:01.555Z,6.33
2022-08-17T02:27:03.808Z,6.83
2022-08-17T02:28:05.419Z,6.07
2022-08-17T02:29:07.296Z,6.20
2022-08-17T02:30:59.128Z,6.40
2022-08-17T02:31:33.463Z,6.30
2022-08-17T02:32:35.017Z,6.80
2022-08-17T02:33:42.999Z,5.87
2022-08-17T02:34:45.215Z,6.50
2022-08-17T02:35:47.256Z,6.20
2022-08-17T02:36:48.892Z,6.57
2022-08-17T02:37:51.809Z,6.37
2022-08-17T02:38:58.503Z,5.90
2022-08-17T02:40:00.520Z,5.03
2022-08-17T02:41:02.216Z,5.50
2022-08-17T02:42:04.265Z,6.10
2022-08-17T02:43:07.336Z,6.20
2022-08-17T02:44:08.930Z,5.90
2022-08-17T02:45:22.958Z,5.53
2022-08-17T02:46:24.588Z,5.97
2022-08-17T02:47:27.796Z,6.27
2022-08-17T02:48:31.002Z,6.03
2022-08-17T02:49:33.426Z,5.90
2022-08-17T02:50:35.042Z,6.07
2022-08-17T02:51:36.617Z,5.13
2022-08-17T02:52:42.362Z,6.30
2022-08-17T02:53:46.786Z,5.77
2022-08-17T02:54:48.532Z,6.10
2022-08-17T02:55:50.117Z,6.20
2022-08-17T02:56:53.349Z,5.57
2022-08-17T02:57:55.551Z,6.10
2022-08-17T02:58:57.246Z,6.30
2022-08-17T02:59:58.786Z,6.97
2022-08-17T03:01:00.491Z,6.80
2022-08-17T03:02:04.071Z,6.07
2022-08-17T03:03:06.948Z,6.33
2022-08-17T03:04:08.539Z,6.47
2022-08-17T03:05:13.445Z,6.97
2022-08-17T03:06:15.017Z,6.20
2022-08-17T03:07:16.767Z,6.50
2022-08-17T03:08:18.768Z,6.07
2022-08-17T03:09:20.287Z,6.00
2022-08-17T03:10:22.563Z,5.23
2022-08-17T03:11:24.161Z,7.70
2022-08-17T03:12:28.999Z,6.40
2022-08-17T03:13:30.912Z,6.53
2022-08-17T03:14:32.694Z,6.40
2022-08-17T03:15:34.962Z,7.90
2022-08-17T03:16:36.572Z,6.77
2022-08-17T03:17:38.129Z,7.90
2022-08-17T03:18:39.685Z,6.97
2022-08-17T03:19:43.029Z,7.30
2022-08-17T03:20:44.959Z,7.80
2022-08-17T03:21:46.453Z,9.00
2022-08-17T03:23:02.961Z,8.70
2022-08-17T03:24:08.734Z,7.80
2022-08-17T03:25:14.250Z,8.03
2022-08-17T03:26:21.195Z,7.80
2022-08-17T03:27:22.991Z,7.60
2022-08-17T03:28:24.919Z,7.90
2022-08-17T03:29:26.674Z,6.53
2022-08-17T03:30:29.609Z,7.60
2022-08-17T03:31:31.470Z,6.70
2022-08-17T03:32:41.448Z,6.77
2022-08-17T03:33:43.050Z,6.27
2022-08-17T03:34:44.587Z,6.70
2022-08-17T03:35:46.497Z,7.43
2022-08-17T03:36:47.989Z,7.07
2022-08-17T03:37:52.440Z,7.17
2022-08-17T03:39:02.596Z,6.43
2022-08-17T03:40:05.165Z,6.87
2022-08-17T03:41:06.987Z,6.90
2022-08-17T03:42:32.003Z,6.57
2022-08-17T03:43:34.760Z,7.40
2022-08-17T03:44:36.336Z,7.00
2022-08-17T03:45:57.700Z,6.17
2022-08-17T03:47:19.547Z,6.30
2022-08-17T03:48:40.453Z,6.70
2022-08-17T03:50:00.483Z,5.93
2022-08-17T03:51:20.969Z,6.40
2022-08-17T03:52:41.009Z,7.00
2022-08-17T03:54:13.055Z,7.40
2022-08-17T03:55:36.060Z,7.07
2022-08-17T03:56:44.353Z,6.70
2022-08-17T03:57:45.898Z,6.73
2022-08-17T03:58:47.967Z,6.40
2022-08-17T03:59:49.867Z,6.80
2022-08-17T04:00:51.668Z,7.33
2022-08-17T04:01:55.385Z,7.30
2022-08-17T04:02:57.533Z,7.60
2022-08-17T04:03:59.190Z,9.03
2022-08-17T04:05:01.170Z,8.13
2022-08-17T04:06:02.694Z,7.60
2022-08-17T04:07:04.697Z,8.13
2022-08-17T04:08:06.774Z,9.03
2022-08-17T04:09:09.203Z,7.87
2022-08-17T04:10:10.838Z,8.97
2022-08-17T04:11:12.580Z,10.40
2022-08-17T04:12:16.472Z,9.93
2022-08-17T04:13:25.006Z,10.17
2022-08-17T04:14:27.394Z,10.43
2022-08-17T04:15:29.423Z,9.20
2022-08-17T04:16:31.871Z,8.67
2022-08-17T04:17:33.543Z,10.07
2022-08-17T04:18:35.272Z,9.60
2022-08-17T04:19:37.032Z,9.10
2022-08-17T04:20:38.719Z,8.30
2022-08-17T04:21:40.905Z,7.70
2022-08-17T04:22:56.598Z,8.00
2022-08-17T04:23:58.769Z,8.40
2022-08-17T04:25:03.892Z,8.63
2022-08-17T04:26:05.554Z,8.20
2022-08-17T04:27:07.141Z,8.03
2022-08-17T04:28:15.978Z,8.60
2022-08-17T04:29:18.539Z,8.00
2022-08-17T04:30:20.258Z,6.73
2022-08-17T04:31:22.840Z,7.30
2022-08-17T04:33:04.056Z,7.10
2022-08-17T04:33:46.050Z,7.33
2022-08-17T04:34:47.564Z,7.80
2022-08-17T04:36:15.865Z,7.50
2022-08-17T04:37:17.453Z,7.30
2022-08-17T04:38:22.397Z,7.00
2022-08-17T04:39:26.172Z,7.43
2022-08-17T04:40:46.937Z,7.93
2022-08-17T04:42:06.865Z,7.23
2022-08-17T04:43:21.196Z,7.37
2022-08-17T04:44:27.256Z,6.90
2022-08-17T04:45:54.855Z,6.77
2022-08-17T04:46:57.581Z,7.60
2022-08-17T04:48:00.622Z,7.47
2022-08-17T04:49:08.390Z,6.80
2022-08-17T04:50:10.010Z,7.27
2022-08-17T04:51:18.004Z,7.17
2022-08-17T04:52:37.483Z,6.87
2022-08-17T04:53:44.221Z,7.13
2022-08-17T04:54:45.784Z,7.13
2022-08-17T04:55:48.400Z,7.30
2022-08-17T04:56:50.046Z,7.57
2022-08-17T04:57:51.586Z,7.97
2022-08-17T04:58:55.784Z,7.40
2022-08-17T04:59:57.271Z,6.73
2022-08-17T05:00:58.897Z,6.97
2022-08-17T05:02:00.510Z,6.20
2022-08-17T05:03:02.066Z,6.57
2022-08-17T05:04:21.061Z,6.77
2022-08-17T05:05:36.773Z,7.20
2022-08-17T05:06:38.762Z,5.80
2022-08-17T05:07:40.285Z,7.43
2022-08-17T05:08:41.975Z,6.50
2022-08-17T05:09:43.512Z,6.47
2022-08-17T05:10:45.940Z,6.83
2022-08-17T05:11:47.986Z,7.07
2022-08-17T05:12:59.667Z,6.47
2022-08-17T05:14:01.482Z,8.33
2022-08-17T05:15:03.238Z,8.37
2022-08-17T05:16:04.946Z,7.27
2022-08-17T05:17:09.621Z,7.53
2022-08-17T05:18:13.589Z,6.53
2022-08-17T05:19:15.207Z,7.10
2022-08-17T05:20:16.853Z,7.30
2022-08-17T05:21:19.775Z,8.07
2022-08-17T05:22:21.319Z,8.73
2022-08-17T05:23:25.915Z,6.80
2022-08-17T05:24:39.043Z,6.07
2022-08-17T05:25:51.376Z,7.43
2022-08-17T05:26:53.360Z,7.30
2022-08-17T05:27:57.913Z,7.50
2022-08-17T05:29:02.579Z,8.53
2022-08-17T05:30:05.160Z,6.90
2022-08-17T05:31:06.881Z,7.70
2022-08-17T05:32:37.975Z,6.97
2022-08-17T05:33:41.444Z,7.97
2022-08-17T05:34:45.554Z,7.20
2022-08-17T05:35:49.349Z,8.00
2022-08-17T05:36:50.950Z,8.10
2022-08-17T05:37:53.530Z,7.40
2022-08-17T05:38:58.679Z,8.60
2022-08-17T05:40:00.411Z,7.30
2022-08-17T05:41:04.715Z,7.63
2022-08-17T05:42:06.487Z,7.40
2022-08-17T05:43:14.805Z,7.20
2022-08-17T05:44:16.975Z,8.00
2022-08-17T05:45:39.994Z,7.67
2022-08-17T05:46:48.894Z,6.67
2022-08-17T05:47:51.134Z,6.53
2022-08-17T05:49:01.445Z,7.63
2022-08-17T05:50:03.980Z,7.50
2022-08-17T05:51:28.720Z,6.60
2022-08-17T05:52:47.796Z,7.53
2022-08-17T05:54:13.955Z,6.90
2022-08-17T05:55:30.839Z,6.00
2022-08-17T05:56:57.401Z,7.60
2022-08-17T05:58:27.865Z,6.87
2022-08-17T05:59:42.084Z,6.80
2022-08-17T06:01:04.154Z,7.77
2022-08-17T06:02:19.181Z,6.60
2022-08-17T06:03:39.304Z,6.47
2022-08-17T06:05:05.026Z,6.80
2022-08-17T06:06:31.759Z,7.17
2022-08-17T06:08:00.403Z,8.47
2022-08-17T06:09:31.527Z,7.87
2022-08-17T06:10:47.734Z,8.43
2022-08-17T06:12:03.452Z,7.60
2022-08-17T06:13:20.370Z,6.30
2022-08-17T06:14:33.562Z,7.23
2022-08-17T06:15:49.972Z,8.53
2022-08-17T06:16:58.681Z,7.60
2022-08-17T06:18:04.442Z,8.40
2022-08-17T06:19:11.210Z,7.60
2022-08-17T06:20:15.728Z,7.60
2022-08-17T06:21:19.686Z,8.03
2022-08-17T06:22:33.308Z,7.90
2022-08-17T06:23:40.669Z,8.23
2022-08-17T06:24:54.175Z,9.67
2022-08-17T06:26:00.164Z,8.40
2022-08-17T06:27:27.009Z,8.40
2022-08-17T06:28:37.398Z,8.90
2022-08-17T06:30:00.557Z,9.00
2022-08-17T06:31:17.108Z,9.60
2022-08-17T06:32:19.065Z,8.30
2022-08-17T06:33:32.191Z,9.10
2022-08-17T06:34:34.105Z,8.10
2022-08-17T06:35:48.320Z,7.73
2022-08-17T06:37:06.449Z,9.20
2022-08-17T06:39:02.032Z,9.20
2022-08-17T06:40:38.398Z,9.30
2022-08-17T06:43:02.173Z,9.60
2022-08-17T06:44:43.734Z,8.70
2022-08-17T06:46:01.724Z,8.43
2022-08-17T06:47:15.664Z,8.87
2022-08-17T06:48:46.917Z,8.83
2022-08-17T06:50:03.518Z,8.90
2022-08-17T06:51:18.922Z,8.17
2022-08-17T06:52:46.144Z,8.40
2022-08-17T06:53:54.800Z,9.50
2022-08-17T06:54:56.276Z,9.63
2022-08-17T06:56:10.073Z,9.90
2022-08-17T06:57:31.649Z,8.73
2022-08-17T06:58:35.665Z,8.90
2022-08-17T06:59:55.428Z,8.53
2022-08-17T07:01:16.661Z,9.40
2022-08-17T07:02:51.586Z,9.90
2022-08-17T07:04:12.022Z,10.10
2022-08-17T07:05:17.497Z,9.13
2022-08-17T07:06:22.178Z,9.27
2022-08-17T07:07:42.616Z,7.73
2022-08-17T07:08:53.451Z,8.00
2022-08-17T07:09:58.957Z,7.80
2022-08-17T07:11:15.488Z,7.83
2022-08-17T07:12:24.570Z,8.13
2022-08-17T07:13:26.091Z,7.70
2022-08-17T07:14:31.679Z,7.37
2022-08-17T07:15:45.321Z,7.10
2022-08-17T07:16:51.602Z,7.00
2022-08-17T07:17:53.241Z,7.00
2022-08-17T07:18:57.331Z,7.17
2022-08-17T07:20:08.662Z,7.50
2022-08-17T07:21:28.288Z,7.80
2022-08-17T07:22:50.312Z,7.53
2022-08-17T07:24:26.220Z,6.63
2022-08-17T07:25:32.459Z,7.03
2022-08-17T07:26:34.193Z,8.10
2022-08-17T07:27:41.904Z,7.73
2022-08-17T07:28:44.715Z,7.37
2022-08-17T07:30:01.069Z,8.10
2022-08-17T07:31:04.669Z,7.87
2022-08-17T07:32:08.290Z,8.47
2022-08-17T07:33:25.720Z,8.00
2022-08-17T07:34:27.279Z,6.20
2022-08-17T07:35:37.955Z,6.97
2022-08-17T07:36:43.187Z,6.43
2022-08-17T07:38:05.657Z,5.93
2022-08-17T07:39:28.117Z,6.30
2022-08-17T07:41:06.232Z,5.80
2022-08-17T07:42:10.267Z,6.00
2022-08-17T07:43:18.829Z,6.00
2022-08-17T07:44:23.991Z,6.10
2022-08-17T07:45:44.274Z,6.80
2022-08-17T07:47:10.486Z,5.27
2022-08-17T07:48:24.560Z,5.80
2022-08-17T07:49:32.300Z,6.63
2022-08-17T07:50:33.865Z,6.80
2022-08-17T07:51:45.613Z,5.87
2022-08-17T07:52:50.295Z,7.03
2022-08-17T07:54:13.476Z,7.40
2022-08-17T07:55:35.956Z,7.47
2022-08-17T07:56:43.626Z,7.17
2022-08-17T07:57:56.150Z,8.23
2022-08-17T07:59:33.201Z,8.53
2022-08-17T08:00:37.131Z,9.87
2022-08-17T08:01:42.548Z,8.73
2022-08-17T08:02:47.790Z,10.23
2022-08-17T08:03:52.563Z,8.90
2022-08-17T08:05:06.784Z,10.13
2022-08-17T08:06:23.114Z,9.00
2022-08-17T08:07:32.650Z,9.70
2022-08-17T08:08:42.254Z,9.50
2022-08-17T08:09:59.308Z,9.50
2022-08-17T08:11:08.311Z,9.20
2022-08-17T08:12:46.268Z,10.77
2022-08-17T08:13:49.890Z,9.87
2022-08-17T08:15:09.223Z,8.47
2022-08-17T08:16:29.113Z,9.23
2022-08-17T08:17:36.462Z,9.23
2022-08-17T08:18:55.971Z,8.60
2022-08-17T08:20:00.535Z,10.03
2022-08-17T08:21:32.005Z,9.63
2022-08-17T08:22:41.104Z,8.17
2022-08-17T08:24:04.308Z,9.27
2022-08-17T08:25:20.915Z,9.90
2022-08-17T08:26:46.555Z,9.83
2022-08-17T08:28:18.549Z,7.63
2022-08-17T08:29:35.596Z,9.20
2022-08-17T08:30:47.070Z,8.63
2022-08-17T08:32:20.868Z,8.20
2022-08-17T08:33:22.524Z,7.07
2022-08-17T08:35:01.827Z,6.43
2022-08-17T08:37:14.545Z,6.63
2022-08-17T08:38:02.134Z,6.73
2022-08-17T08:39:25.896Z,7.13
2022-08-17T08:40:45.450Z,7.70
2022-08-17T08:42:31.280Z,6.87
2022-08-17T08:44:00.978Z,5.77
2022-08-17T08:45:16.736Z,6.47
2022-08-17T08:46:41.841Z,7.03
2022-08-17T08:48:45.813Z,5.83
2022-08-17T08:50:08.053Z,7.03
2022-08-17T08:51:38.186Z,6.53
2022-08-17T08:53:07.013Z,6.20
2022-08-17T08:54:26.631Z,6.43
2022-08-17T08:55:42.463Z,6.13
2022-08-17T08:57:22.256Z,5.70
2022-08-17T08:58:48.289Z,4.63
2022-08-17T09:00:08.659Z,5.30
2022-08-17T09:01:53.494Z,5.17
2022-08-17T09:03:32.412Z,5.13
2022-08-17T09:05:13.777Z,5.20
2022-08-17T09:06:48.685Z,6.53
2022-08-17T09:08:22.087Z,6.00
2022-08-17T09:09:49.570Z,6.00
2022-08-17T09:11:03.830Z,5.80
2022-08-17T09:12:16.870Z,5.93
2022-08-17T09:14:00.058Z,5.90
2022-08-17T09:15:17.611Z,6.40
2022-08-17T09:16:38.533Z,5.43
2022-08-17T09:18:08.520Z,4.80
2022-08-17T09:19:30.445Z,4.87
2022-08-17T09:20:48.093Z,5.37
2022-08-17T09:22:12.028Z,5.77
2022-08-17T09:23:18.202Z,5.30
2022-08-17T09:24:32.042Z,4.83
2022-08-17T09:25:49.809Z,5.23
2022-08-17T09:27:09.108Z,5.00
2022-08-17T09:28:27.763Z,4.93
2022-08-17T09:29:37.978Z,5.10
2022-08-17T09:30:49.597Z,4.57
2022-08-17T09:31:55.857Z,5.50
2022-08-17T09:33:04.631Z,5.80
2022-08-17T09:34:14.030Z,5.90
2022-08-17T09:35:25.100Z,5.37
2022-08-17T09:36:44.023Z,6.20
2022-08-17T09:38:07.334Z,5.60
2022-08-17T09:39:19.284Z,6.30
2022-08-17T09:40:28.874Z,6.13
2022-08-17T09:41:58.698Z,6.80
2022-08-17T09:43:12.177Z,6.87
2022-08-17T09:44:34.985Z,7.53
2022-08-17T09:45:49.441Z,6.70
2022-08-17T09:46:58.854Z,7.70
2022-08-17T09:48:18.190Z,8.07
2022-08-17T09:49:28.296Z,7.80
2022-08-17T09:51:03.791Z,7.40
2022-08-17T09:52:15.222Z,6.73
2022-08-17T09:53:19.720Z,7.03
2022-08-17T09:54:39.923Z,7.63
2022-08-17T09:56:06.842Z,6.87
2022-08-17T09:57:31.116Z,8.03
2022-08-17T09:59:06.696Z,7.47
2022-08-17T10:00:18.781Z,7.23
2022-08-17T10:01:38.425Z,6.63
2022-08-17T10:02:43.008Z,8.80
2022-08-17T10:03:53.762Z,8.50
2022-08-17T10:05:27.336Z,9.20
2022-08-17T10:06:35.492Z,9.30
2022-08-17T10:07:46.539Z,8.53
2022-08-17T10:09:08.194Z,7.67
2022-08-17T10:10:14.385Z,6.33
2022-08-17T10:12:09.313Z,6.33
2022-08-17T10:13:16.545Z,6.20
2022-08-17T10:14:44.387Z,6.37
2022-08-17T10:16:15.596Z,6.40
2022-08-17T10:17:54.506Z,6.13
2022-08-17T10:19:32.837Z,6.23
2022-08-17T10:20:46.575Z,6.17
2022-08-17T10:22:34.508Z,5.70
2022-08-17T10:23:55.959Z,5.60
2022-08-17T10:25:23.974Z,5.83
2022-08-17T10:26:43.081Z,6.20
2022-08-17T10:27:58.704Z,5.80
2022-08-17T10:29:09.681Z,5.20
2022-08-17T10:30:17.368Z,5.73
2022-08-17T10:31:36.450Z,6.27
2022-08-17T10:32:49.633Z,5.43
2022-08-17T10:33:51.152Z,6.40
2022-08-17T10:35:11.257Z,5.10
2022-08-17T10:36:24.042Z,5.60
2022-08-17T10:37:37.635Z,5.07
2022-08-17T10:38:58.871Z,5.07
2022-08-17T10:40:26.378Z,5.80
2022-08-17T10:41:40.074Z,4.80
2022-08-17T10:42:50.797Z,5.07
2022-08-17T10:44:39.280Z,4.90
2022-08-17T10:46:09.527Z,5.27
2022-08-17T10:48:21.487Z,5.67
2022-08-17T10:49:30.502Z,5.60
2022-08-17T10:50:55.983Z,5.23
2022-08-17T10:52:00.577Z,5.00
2022-08-17T10:53:02.332Z,4.80
2022-08-17T10:54:27.324Z,4.90
2022-08-17T10:55:29.139Z,4.67
2022-08-17T10:56:50.912Z,5.50
2022-08-17T10:58:20.896Z,4.60
2022-08-17T10:59:34.547Z,4.70
2022-08-17T11:00:42.423Z,4.60
2022-08-17T11:02:04.119Z,4.90
2022-08-17T11:03:21.034Z,4.80
2022-08-17T11:04:47.774Z,4.90
2022-08-17T11:05:53.973Z,5.27
2022-08-17T11:07:23.600Z,4.83
2022-08-17T11:08:43.806Z,4.50
2022-08-17T11:10:33.381Z,4.43
2022-08-17T11:11:52.439Z,4.80
2022-08-17T11:13:14.013Z,4.90
2022-08-17T11:14:41.183Z,5.40
2022-08-17T11:16:30.509Z,5.00
2022-08-17T11:17:58.200Z,4.10
2022-08-17T11:19:26.453Z,4.43
2022-08-17T11:20:45.414Z,4.37
2022-08-17T11:22:02.079Z,4.80
2022-08-17T11:23:25.845Z,4.80
2022-08-17T11:24:43.473Z,5.13
2022-08-17T11:25:56.402Z,4.90
2022-08-17T11:27:08.766Z,4.50
2022-08-17T11:28:18.421Z,4.43
2022-08-17T11:29:27.474Z,4.47
2022-08-17T11:30:48.521Z,5.07
2022-08-17T11:32:01.989Z,4.20
2022-08-17T11:33:30.516Z,4.97
2022-08-17T11:34:34.777Z,4.87
2022-08-17T11:35:48.092Z,4.73
2022-08-17T11:37:02.540Z,5.10
2022-08-17T11:38:30.496Z,4.47
2022-08-17T11:39:53.831Z,4.80
2022-08-17T11:41:07.561Z,5.30
2022-08-17T11:42:27.597Z,4.87
2022-08-17T11:43:55.525Z,5.83
2022-08-17T11:45:03.121Z,5.03
2022-08-17T11:46:45.890Z,5.70
2022-08-17T11:48:28.157Z,5.40
2022-08-17T11:50:25.770Z,5.00
2022-08-17T11:52:04.833Z,5.10
2022-08-17T11:53:27.372Z,4.70
2022-08-17T11:54:48.799Z,5.10
2022-08-17T11:55:53.411Z,5.20
2022-08-17T11:56:55.043Z,5.00
2022-08-17T11:58:37.232Z,4.77
2022-08-17T11:59:40.002Z,4.60
2022-08-17T12:00:56.545Z,4.30
2022-08-17T12:02:00.010Z,4.20
2022-08-17T12:03:22.435Z,5.47
2022-08-17T12:04:29.814Z,4.70
2022-08-17T12:05:32.987Z,6.80
2022-08-17T12:06:45.417Z,5.40
2022-08-17T12:08:10.799Z,5.43
2022-08-17T12:09:19.933Z,5.27
2022-08-17T12:10:31.680Z,4.67
2022-08-17T12:11:55.661Z,4.37
2022-08-17T12:13:16.837Z,3.83
2022-08-17T12:14:45.049Z,4.03
2022-08-17T12:15:52.758Z,4.40
2022-08-17T12:17:05.529Z,4.57
2022-08-17T12:18:07.087Z,3.95
2022-08-17T12:19:19.351Z,3.63
2022-08-17T12:20:32.182Z,4.07
2022-08-17T12:21:46.257Z,4.03
2022-08-17T12:23:04.111Z,4.53
2022-08-17T12:24:23.139Z,3.45
2022-08-17T12:25:35.879Z,4.63
2022-08-17T12:26:37.728Z,3.80
2022-08-17T12:28:05.362Z,3.88
2022-08-17T12:29:18.271Z,4.32
2022-08-17T12:30:37.921Z,4.30
2022-08-17T12:31:47.143Z,4.70
2022-08-17T12:32:50.021Z,4.20
2022-08-17T12:33:51.931Z,4.47
2022-08-17T12:34:53.879Z,4.40
2022-08-17T12:36:00.122Z,4.43
2022-08-17T12:37:07.079Z,4.53
2022-08-17T12:38:32.805Z,4.07
2022-08-17T12:39:34.031Z,3.55
2022-08-17T12:40:36.307Z,3.28
2022-08-17T12:41:40.863Z,3.90
2022-08-17T12:43:04.113Z,3.13
2022-08-17T12:44:15.128Z,3.13
2022-08-17T12:45:27.439Z,3.05
2022-08-17T12:46:45.626Z,3.33
2022-08-17T12:47:47.285Z,2.88
2022-08-17T12:48:58.914Z,3.75
2022-08-17T12:50:28.783Z,3.20
2022-08-17T12:51:31.840Z,3.90
2022-08-17T12:52:39.655Z,3.22
2022-08-17T12:53:49.458Z,3.28
2022-08-17T12:54:53.538Z,3.65
2022-08-17T12:55:57.294Z,3.28
2022-08-17T12:57:05.614Z,3.05
2022-08-17T12:58:14.348Z,3.88
2022-08-17T12:59:29.773Z,3.40
2022-08-17T13:00:38.180Z,3.75
2022-08-17T13:01:42.110Z,3.75
2022-08-17T13:02:50.870Z,3.60
2022-08-17T13:03:57.182Z,3.22
2022-08-17T13:05:01.259Z,4.03
2022-08-17T13:06:07.354Z,3.95
2022-08-17T13:07:08.946Z,4.47
2022-08-17T13:08:25.554Z,3.50
2022-08-17T13:09:35.732Z,3.95
2022-08-17T13:10:53.609Z,3.80
2022-08-17T13:12:01.986Z,3.70
2022-08-17T13:13:22.680Z,4.27
2022-08-17T13:14:24.412Z,3.90
2022-08-17T13:15:32.399Z,3.93
2022-08-17T13:16:34.100Z,4.33
2022-08-17T13:17:36.648Z,4.00
2022-08-17T13:18:41.468Z,4.03
2022-08-17T13:19:52.133Z,3.90
2022-08-17T13:20:57.178Z,4.57
2022-08-17T13:22:01.404Z,3.90
2022-08-17T13:23:11.937Z,4.00
2022-08-17T13:24:29.765Z,3.70
2022-08-17T13:25:40.298Z,4.30
2022-08-17T13:26:47.059Z,3.43
2022-08-17T13:27:52.362Z,4.13
2022-08-17T13:28:54.523Z,3.97
2022-08-17T13:30:02.390Z,4.13
2022-08-17T13:31:32.982Z,3.30
2022-08-17T13:32:47.129Z,3.63
2022-08-17T13:33:50.488Z,4.40
2022-08-17T13:35:14.397Z,3.80
2022-08-17T13:36:30.434Z,3.70
2022-08-17T13:37:35.414Z,3.87
2022-08-17T13:38:47.919Z,3.70
2022-08-17T13:39:49.508Z,3.60
2022-08-17T13:40:53.174Z,4.27
2022-08-17T13:41:58.001Z,3.80
2022-08-17T13:42:59.664Z,3.83
2022-08-17T13:44:01.363Z,3.88
2022-08-17T13:45:35.255Z,4.18
2022-08-17T13:46:31.289Z,4.28
2022-08-17T13:47:33.205Z,5.05
2022-08-17T13:48:34.926Z,4.00
2022-08-17T13:49:48.230Z,4.20
2022-08-17T13:50:56.444Z,4.10
2022-08-17T13:51:58.349Z,4.07
2022-08-17T13:53:00.215Z,4.10
2022-08-17T13:54:06.401Z,4.30
2022-08-17T13:55:20.975Z,4.17
2022-08-17T13:56:46.974Z,3.67
2022-08-17T13:58:06.749Z,4.13
2022-08-17T13:59:12.644Z,4.13
2022-08-17T14:00:29.839Z,3.92
2022-08-17T14:01:52.836Z,4.28
2022-08-17T14:02:57.520Z,4.30
2022-08-17T14:04:00.518Z,4.10
2022-08-17T14:05:02.198Z,3.50
2022-08-17T14:06:07.978Z,4.18
2022-08-17T14:07:12.942Z,4.37
2022-08-17T14:08:16.827Z,4.57
2022-08-17T14:09:20.068Z,3.58
2022-08-17T14:10:23.192Z,4.40
2022-08-17T14:11:24.932Z,3.73
2022-08-17T14:12:30.126Z,4.50
2022-08-17T14:13:32.278Z,3.83
2022-08-17T14:14:34.160Z,4.50
2022-08-17T14:15:55.133Z,5.27
2022-08-17T14:16:57.814Z,4.20
2022-08-17T14:17:59.575Z,3.73
2022-08-17T14:19:03.318Z,3.87
2022-08-17T14:20:07.405Z,3.80
2022-08-17T14:21:10.017Z,16.53
2022-08-17T14:22:19.389Z,4.20
2022-08-17T14:23:20.987Z,4.70
2022-08-17T14:24:29.026Z,4.30
2022-08-17T14:25:30.688Z,4.07
2022-08-17T14:26:33.033Z,4.00
2022-08-17T14:27:51.776Z,4.17
2022-08-17T14:28:56.830Z,3.40
2022-08-17T14:29:58.638Z,3.55
2022-08-17T14:31:01.099Z,4.07
2022-08-17T14:32:11.431Z,4.30
2022-08-17T14:33:14.317Z,3.88
2022-08-17T14:34:16.003Z,3.50
2022-08-17T14:35:18.969Z,3.80
2022-08-17T14:36:20.802Z,3.90
2022-08-17T14:37:26.297Z,3.10
2022-08-17T14:38:28.016Z,3.83
2022-08-17T14:39:29.778Z,3.72
2022-08-17T14:40:31.946Z,4.07
2022-08-17T14:41:33.566Z,3.85
2022-08-17T14:42:37.380Z,3.65
2022-08-17T14:43:39.871Z,3.40
2022-08-17T14:44:41.476Z,3.70
2022-08-17T14:45:43.896Z,3.72
2022-08-17T14:46:45.448Z,3.47
2022-08-17T14:47:47.139Z,3.78
2022-08-17T14:48:57.176Z,3.88
2022-08-17T14:50:01.152Z,3.20
2022-08-17T14:51:04.798Z,3.75
2022-08-17T14:52:06.555Z,3.40
2022-08-17T14:53:11.039Z,3.20
2022-08-17T14:54:33.052Z,4.05
2022-08-17T14:55:39.659Z,3.45
2022-08-17T14:56:41.226Z,3.58
2022-08-17T14:57:47.050Z,4.05
2022-08-17T14:58:49.091Z,3.70
2022-08-17T14:59:54.581Z,3.85
2022-08-17T15:00:57.598Z,3.85
2022-08-17T15:02:00.275Z,3.67
2022-08-17T15:03:02.823Z,3.80
2022-08-17T15:04:04.557Z,3.80
2022-08-17T15:05:07.108Z,4.32
2022-08-17T15:06:10.597Z,3.55
2022-08-17T15:07:12.202Z,3.57
2022-08-17T15:08:13.862Z,4.60
2022-08-17T15:09:16.907Z,4.30
2022-08-17T15:10:19.841Z,4.10
2022-08-17T15:11:21.461Z,4.50
2022-08-17T15:12:27.503Z,4.40
2022-08-17T15:13:33.665Z,4.50
2022-08-17T15:14:36.215Z,3.90
2022-08-17T15:15:37.873Z,4.63
2022-08-17T15:16:39.480Z,4.27
2022-08-17T15:17:45.866Z,4.03
2022-08-17T15:18:49.079Z,4.23
2022-08-17T15:19:50.870Z,4.83
2022-08-17T15:20:52.730Z,4.40
2022-08-17T15:21:54.604Z,4.90
2022-08-17T15:22:58.842Z,3.60
2022-08-17T15:24:00.586Z,4.30
2022-08-17T15:25:07.698Z,4.67
2022-08-17T15:26:09.441Z,4.43
2022-08-17T15:27:11.461Z,4.40
2022-08-17T15:28:13.566Z,4.57
2022-08-17T15:29:15.177Z,4.70
2022-08-17T15:30:17.495Z,3.83
2022-08-17T15:31:19.419Z,4.17
2022-08-17T15:32:38.033Z,4.67
2022-08-17T15:33:39.821Z,4.33
2022-08-17T15:34:41.395Z,4.53
2022-08-17T15:35:44.117Z,4.00
2022-08-17T15:36:49.468Z,3.83
2022-08-17T15:37:51.509Z,3.80
2022-08-17T15:38:53.388Z,3.80
2022-08-17T15:39:55.930Z,4.40
2022-08-17T15:40:58.391Z,4.97
2022-08-17T15:42:03.457Z,4.43